Time;durP1;ratioP1;P1;durP2;ratioP2;P2;SDS_P1;SDS_P2;PMS_P1;PMS_P2;Temp;Humidity;BMP_temperature;BMP_pressure;BME280_temperature;BME280_humidity;BME280_pressure;Samples;Min_cycle;Max_cycle;Signal;HPM_P1;HPM_P2
2023/01/12 00:01:49;;;;;;;4.55;1.25;;;10.90;99.90;;;;;;4978949;28;20551;-87
2023/01/12 00:04:15;;;;;;;4.83;1.27;;;10.90;99.90;;;;;;4977871;28;20167;-87
2023/01/12 00:06:41;;;;;;;4.05;1.15;;;10.90;99.90;;;;;;5019047;28;20049;-89
2023/01/12 00:09:08;;;;;;;4.82;1.25;;;11.00;99.90;;;;;;4988987;28;20563;-88
2023/01/12 00:11:38;;;;;;;3.33;1.10;;;11.00;99.90;;;;;;4983686;28;20101;-88
2023/01/12 00:14:05;;;;;;;5.63;1.30;;;11.00;99.90;;;;;;4988271;28;20049;-87
2023/01/12 00:16:34;;;;;;;6.55;1.55;;;11.00;99.90;;;;;;4990660;28;20044;-88
2023/01/12 00:19:15;;;;;;;9.05;1.50;;;11.00;99.90;;;;;;4994319;28;20021;-88
2023/01/12 00:24:48;;;;;;;6.53;1.40;;;11.00;99.90;;;;;;4966193;28;20473;-88
2023/01/12 00:27:21;;;;;;;8.07;1.70;;;11.00;99.90;;;;;;4993680;28;20313;-89
2023/01/12 00:29:48;;;;;;;7.25;1.75;;;11.00;99.90;;;;;;4987399;28;20413;-88
2023/01/12 00:32:17;;;;;;;7.15;1.40;;;11.10;99.90;;;;;;5005217;28;20325;-89
2023/01/12 00:34:43;;;;;;;4.47;1.50;;;11.10;99.90;;;;;;4983485;28;20036;-88
2023/01/12 00:37:10;;;;;;;6.22;1.30;;;11.00;99.90;;;;;;4999719;28;20684;-86
2023/01/12 00:39:36;;;;;;;6.03;1.58;;;11.10;99.90;;;;;;5025650;28;20021;-87
2023/01/12 00:47:32;;;;;;;7.67;1.70;;;11.10;99.90;;;;;;5006753;28;20344;-88
2023/01/12 00:49:58;;;;;;;5.30;1.35;;;11.10;99.90;;;;;;4997267;28;20226;-87
2023/01/12 00:52:24;;;;;;;5.78;1.50;;;11.10;99.90;;;;;;4986712;28;20033;-87
2023/01/12 00:54:49;;;;;;;4.35;1.50;;;11.10;99.90;;;;;;5003336;28;20309;-88
2023/01/12 00:57:16;;;;;;;6.67;1.60;;;11.10;99.90;;;;;;5026101;28;20104;-87
2023/01/12 00:59:43;;;;;;;7.20;1.67;;;11.10;99.90;;;;;;4954538;28;20880;-87
2023/01/12 01:02:10;;;;;;;6.57;1.52;;;11.10;99.90;;;;;;5027283;28;20017;-87
2023/01/12 01:04:36;;;;;;;6.67;1.40;;;11.10;99.90;;;;;;4982308;28;20113;-88
2023/01/12 01:07:02;;;;;;;9.60;1.73;;;11.10;99.90;;;;;;4981167;28;20135;-89
2023/01/12 01:09:29;;;;;;;7.55;1.67;;;11.10;99.90;;;;;;4994905;28;20018;-89
2023/01/12 01:11:57;;;;;;;6.95;1.50;;;11.10;99.90;;;;;;4986076;28;20311;-88
2023/01/12 01:14:23;;;;;;;7.95;1.15;;;11.20;99.90;;;;;;5003398;28;20396;-88
2023/01/12 01:16:49;;;;;;;7.13;1.80;;;11.20;99.90;;;;;;4940926;28;20030;-89
2023/01/12 01:19:14;;;;;;;12.05;2.75;;;11.20;99.90;;;;;;4981177;28;20412;-90
2023/01/12 01:21:40;;;;;;;8.53;1.80;;;11.20;99.90;;;;;;4971642;28;20465;-89
2023/01/12 01:24:13;;;;;;;6.88;1.52;;;11.30;99.90;;;;;;4979699;28;20017;-88
2023/01/12 01:26:40;;;;;;;5.82;1.40;;;11.20;99.90;;;;;;4969712;28;20048;-88
2023/01/12 01:29:06;;;;;;;8.02;1.73;;;11.30;99.90;;;;;;4990956;28;20492;-88
2023/01/12 01:31:32;;;;;;;9.80;1.70;;;11.30;99.90;;;;;;4955506;28;20025;-88
2023/01/12 01:33:58;;;;;;;8.85;1.63;;;11.20;99.90;;;;;;4995599;28;20159;-86
2023/01/12 01:36:24;;;;;;;7.93;1.48;;;11.20;99.90;;;;;;4965692;28;20070;-87
2023/01/12 01:38:50;;;;;;;4.38;1.10;;;11.20;99.90;;;;;;4983540;28;20238;-87
2023/01/12 01:41:25;;;;;;;4.43;1.17;;;11.20;99.90;;;;;;4997927;28;20029;-88
2023/01/12 01:43:56;;;;;;;6.78;1.90;;;11.20;99.90;;;;;;4978587;28;20025;-89
2023/01/12 01:47:15;;;;;;;7.70;1.35;;;11.20;99.90;;;;;;4992392;28;20700;-86
2023/01/12 01:49:51;;;;;;;9.38;1.45;;;11.20;99.90;;;;;;4951148;28;20766;-86
2023/01/12 01:52:30;;;;;;;7.50;1.60;;;11.20;99.90;;;;;;4979973;28;20065;-87
2023/01/12 01:55:11;;;;;;;7.50;1.97;;;11.20;99.90;;;;;;4980011;28;20019;-88
2023/01/12 01:57:58;;;;;;;7.85;1.48;;;11.20;99.90;;;;;;5007569;28;20087;-86
2023/01/12 02:00:24;;;;;;;8.52;1.40;;;11.20;99.90;;;;;;4991073;28;20332;-89
2023/01/12 02:02:51;;;;;;;6.78;1.40;;;11.20;99.90;;;;;;4970320;28;20307;-89
2023/01/12 02:05:21;;;;;;;11.40;1.48;;;11.20;99.90;;;;;;4996235;28;20038;-90
2023/01/12 02:07:49;;;;;;;7.93;1.43;;;11.20;99.90;;;;;;4963771;28;20884;-87
2023/01/12 02:10:16;;;;;;;6.78;1.20;;;11.20;99.90;;;;;;4974565;28;20029;-87
2023/01/12 02:18:35;;;;;;;5.13;1.20;;;11.20;99.90;;;;;;4988065;28;20461;-85
2023/01/12 02:21:07;;;;;;;7.77;1.40;;;11.20;99.90;;;;;;4993279;28;20024;-89
2023/01/12 02:23:38;;;;;;;7.68;1.50;;;11.20;99.90;;;;;;4977845;28;20154;-87
2023/01/12 02:26:19;;;;;;;7.18;1.65;;;11.30;99.90;;;;;;4996561;28;20037;-90
2023/01/12 02:29:03;;;;;;;6.43;1.20;;;11.20;99.90;;;;;;4993469;28;20433;-88
2023/01/12 02:32:11;;;;;;;7.72;1.85;;;11.20;99.90;;;;;;4995274;28;20034;-90
2023/01/12 02:35:04;;;;;;;7.87;1.60;;;11.20;99.90;;;;;;4975942;28;20041;-89
2023/01/12 02:37:57;;;;;;;6.35;1.30;;;11.20;99.90;;;;;;4969626;28;20618;-87
2023/01/12 02:40:23;;;;;;;5.63;1.50;;;11.20;99.90;;;;;;4995506;28;20485;-86
2023/01/12 02:43:03;;;;;;;5.53;1.30;;;11.20;99.90;;;;;;4970324;28;20026;-85
2023/01/12 02:46:10;;;;;;;8.10;1.35;;;11.20;99.90;;;;;;4987349;28;20018;-86
2023/01/12 02:48:50;;;;;;;5.68;1.48;;;11.20;99.90;;;;;;4921501;28;20129;-87
2023/01/12 02:51:39;;;;;;;4.78;1.50;;;11.20;99.90;;;;;;4978712;28;20026;-88
2023/01/12 02:54:09;;;;;;;6.40;1.35;;;11.20;99.90;;;;;;4998344;28;20037;-87
2023/01/12 02:56:43;;;;;;;7.97;1.47;;;11.20;99.90;;;;;;4987143;28;20374;-87
2023/01/12 02:59:15;;;;;;;4.85;1.48;;;11.20;99.90;;;;;;4990675;28;20036;-87
2023/01/12 03:01:43;;;;;;;4.85;1.00;;;11.20;99.90;;;;;;4989760;28;20026;-88
2023/01/12 03:04:12;;;;;;;5.13;1.10;;;11.20;99.90;;;;;;4992725;28;20025;-86
2023/01/12 03:07:06;;;;;;;9.00;1.52;;;11.20;99.90;;;;;;4946531;28;20079;-89
2023/01/12 03:09:46;;;;;;;5.57;1.43;;;11.20;99.90;;;;;;4982359;28;20204;-86
2023/01/12 03:12:17;;;;;;;5.47;1.17;;;11.20;99.90;;;;;;5003579;28;20029;-86
2023/01/12 03:14:47;;;;;;;7.00;1.42;;;11.20;99.90;;;;;;4973403;28;20026;-88
2023/01/12 03:17:20;;;;;;;7.10;1.13;;;11.20;99.90;;;;;;5008809;28;20044;-86
2023/01/12 03:19:46;;;;;;;8.13;1.67;;;11.20;99.90;;;;;;5005030;28;20025;-88
2023/01/12 03:22:15;;;;;;;7.00;1.50;;;11.20;99.90;;;;;;4968690;28;20033;-87
2023/01/12 03:24:53;;;;;;;3.22;0.90;;;11.20;99.90;;;;;;4960710;28;21311;-88
2023/01/12 03:27:31;;;;;;;8.10;1.40;;;11.20;99.90;;;;;;4976105;28;20446;-86
2023/01/12 03:30:04;;;;;;;6.57;1.50;;;11.20;99.90;;;;;;5005692;28;20109;-88
2023/01/12 03:32:31;;;;;;;8.82;1.63;;;11.20;99.90;;;;;;4990289;28;20032;-89
2023/01/12 03:34:57;;;;;;;7.07;1.20;;;11.20;99.90;;;;;;4992269;28;20025;-88
2023/01/12 03:37:27;;;;;;;8.63;1.40;;;11.10;99.90;;;;;;4957961;28;20452;-88
2023/01/12 03:40:00;;;;;;;7.63;1.70;;;11.10;99.90;;;;;;4995357;28;20251;-90
2023/01/12 03:42:56;;;;;;;8.43;1.50;;;11.20;99.90;;;;;;4983855;28;20362;-88
2023/01/12 03:45:30;;;;;;;9.00;1.25;;;11.20;99.90;;;;;;4927287;28;20039;-89
2023/01/12 03:48:08;;;;;;;4.90;1.23;;;11.20;99.90;;;;;;4978546;28;20397;-85
2023/01/12 03:50:41;;;;;;;9.65;1.70;;;11.20;99.90;;;;;;4994367;28;20025;-86
2023/01/12 03:53:09;;;;;;;9.55;1.75;;;11.10;99.90;;;;;;4977797;28;20116;-88
2023/01/12 03:55:36;;;;;;;8.20;1.58;;;11.20;99.90;;;;;;4985527;28;20505;-88
2023/01/12 03:58:02;;;;;;;6.70;1.48;;;11.20;99.90;;;;;;4978313;28;20026;-88
2023/01/12 04:00:28;;;;;;;6.30;1.47;;;11.10;99.90;;;;;;4979751;28;20370;-85
2023/01/12 04:03:15;;;;;;;8.15;1.40;;;11.20;99.90;;;;;;5009809;28;20658;-86
2023/01/12 04:05:42;;;;;;;8.55;1.63;;;11.20;99.90;;;;;;4976294;28;20038;-86
2023/01/12 04:08:09;;;;;;;6.82;1.42;;;11.20;99.90;;;;;;4975100;28;20733;-87
2023/01/12 04:10:35;;;;;;;8.05;1.88;;;11.20;99.90;;;;;;4986234;28;20032;-87
2023/01/12 04:13:00;;;;;;;7.43;1.50;;;11.20;99.90;;;;;;4977061;28;20010;-87
2023/01/12 04:15:26;;;;;;;9.43;1.50;;;11.20;99.90;;;;;;4977944;28;20022;-86
2023/01/12 04:17:52;;;;;;;8.60;1.60;;;11.20;99.90;;;;;;4991465;28;20065;-86
2023/01/12 04:20:18;;;;;;;11.63;1.63;;;11.20;99.90;;;;;;4979932;28;20108;-85
2023/01/12 04:22:45;;;;;;;9.25;1.70;;;11.20;99.90;;;;;;5010632;28;20025;-86
2023/01/12 04:25:19;;;;;;;10.65;1.63;;;11.20;99.90;;;;;;4978479;28;20086;-87
2023/01/12 04:27:50;;;;;;;15.32;2.00;;;11.10;99.90;;;;;;4968543;28;20017;-87
2023/01/12 04:30:19;;;;;;;6.90;1.47;;;11.10;99.90;;;;;;4976824;28;20036;-86
2023/01/12 04:32:45;;;;;;;8.15;1.30;;;11.10;99.90;;;;;;4973589;28;20209;-86
2023/01/12 04:35:11;;;;;;;9.63;1.52;;;11.10;99.90;;;;;;4982922;28;20196;-87
2023/01/12 04:37:38;;;;;;;7.25;1.45;;;11.10;99.90;;;;;;4994201;28;20152;-86
2023/01/12 04:40:05;;;;;;;6.00;1.45;;;11.20;99.90;;;;;;4972506;28;20025;-86
2023/01/12 04:45:15;;;;;;;6.22;1.30;;;11.10;99.90;;;;;;4994899;28;20695;-86
2023/01/12 04:47:41;;;;;;;9.45;1.40;;;11.10;99.90;;;;;;5011571;28;20044;-84
2023/01/12 04:50:07;;;;;;;7.77;1.23;;;11.10;99.90;;;;;;5010159;28;20225;-86
2023/01/12 04:52:33;;;;;;;10.77;1.70;;;11.10;99.90;;;;;;5012505;28;20026;-84
2023/01/12 04:54:59;;;;;;;5.85;1.13;;;11.10;99.90;;;;;;4965420;28;20867;-85
2023/01/12 04:57:25;;;;;;;7.40;1.20;;;11.10;99.90;;;;;;4994200;28;20565;-85
2023/01/12 04:59:51;;;;;;;7.82;1.23;;;11.10;99.90;;;;;;4969209;28;20026;-86
2023/01/12 05:02:16;;;;;;;7.27;1.30;;;11.10;99.90;;;;;;4992928;28;20052;-85
2023/01/12 05:04:42;;;;;;;7.18;1.30;;;11.10;99.90;;;;;;5013129;28;20422;-86
2023/01/12 05:07:08;;;;;;;7.30;1.10;;;11.10;99.90;;;;;;4995605;28;20037;-86
2023/01/12 05:12:18;;;;;;;5.85;1.50;;;11.10;99.90;;;;;;5008774;28;20222;-86
2023/01/12 05:14:43;;;;;;;5.57;1.10;;;11.10;99.90;;;;;;5005609;28;20470;-86
2023/01/12 05:17:09;;;;;;;6.22;1.10;;;11.10;99.90;;;;;;5014702;28;20032;-86
2023/01/12 05:19:35;;;;;;;6.25;1.13;;;11.10;99.90;;;;;;5018024;28;20376;-86
2023/01/12 05:22:01;;;;;;;4.97;1.20;;;11.10;99.90;;;;;;4992125;28;20035;-86
2023/01/12 05:24:27;;;;;;;6.40;1.02;;;11.10;99.90;;;;;;5007626;28;20067;-85
2023/01/12 05:26:53;;;;;;;4.57;1.10;;;11.10;99.90;;;;;;4968600;28;20108;-85
2023/01/12 05:29:19;;;;;;;5.13;1.40;;;11.20;99.90;;;;;;4986647;28;20083;-85
2023/01/12 05:31:45;;;;;;;5.87;1.00;;;11.10;99.90;;;;;;4979789;28;20057;-86
2023/01/12 05:34:12;;;;;;;4.03;1.00;;;11.10;99.90;;;;;;4984779;28;20301;-85
2023/01/12 05:36:38;;;;;;;7.07;1.40;;;11.20;99.90;;;;;;5004942;28;20043;-85
2023/01/12 05:39:04;;;;;;;5.60;1.10;;;11.20;99.90;;;;;;5021205;28;20290;-85
2023/01/12 05:41:30;;;;;;;7.63;1.33;;;11.20;99.90;;;;;;5010004;28;20025;-85
2023/01/12 05:43:56;;;;;;;5.68;0.93;;;11.20;99.90;;;;;;4982912;28;20029;-86
2023/01/12 05:46:30;;;;;;;6.33;1.10;;;11.20;99.90;;;;;;5012064;28;20115;-87
2023/01/12 05:48:57;;;;;;;6.95;0.98;;;11.20;99.90;;;;;;5023065;28;20040;-87
2023/01/12 05:51:25;;;;;;;10.25;1.50;;;11.20;99.90;;;;;;5021161;28;20044;-87
2023/01/12 05:53:51;;;;;;;5.22;1.10;;;11.20;99.90;;;;;;4991002;28;20174;-86
2023/01/12 05:56:24;;;;;;;3.67;1.10;;;11.20;99.90;;;;;;4991813;28;20032;-85
2023/01/12 05:58:58;;;;;;;3.63;1.00;;;11.20;99.90;;;;;;4970963;28;20104;-86
2023/01/12 06:01:24;;;;;;;7.82;0.90;;;11.20;99.90;;;;;;4995325;28;20032;-86
2023/01/12 06:03:51;;;;;;;4.65;0.90;;;11.20;99.90;;;;;;4991627;28;20017;-84
2023/01/12 06:06:18;;;;;;;4.10;0.95;;;11.20;99.90;;;;;;4991475;28;20134;-86
2023/01/12 06:08:45;;;;;;;4.88;1.20;;;11.20;99.90;;;;;;4975105;28;20029;-86
2023/01/12 06:13:55;;;;;;;5.87;0.93;;;11.20;99.90;;;;;;4977510;28;20037;-86
2023/01/12 06:13:56;;;;;;;5.13;1.00;;;11.20;99.90;;;;;;4999267;28;20036;-86
2023/01/12 06:16:22;;;;;;;6.15;1.25;;;11.20;99.90;;;;;;4991295;28;21372;-85
2023/01/12 06:18:48;;;;;;;5.20;1.10;;;11.20;99.90;;;;;;5025364;28;20739;-86
2023/01/12 06:21:14;;;;;;;4.27;1.03;;;11.20;99.90;;;;;;4978137;28;20348;-85
2023/01/12 06:23:39;;;;;;;4.50;1.03;;;11.20;99.90;;;;;;4979976;28;20489;-84
2023/01/12 06:26:07;;;;;;;4.73;0.90;;;11.20;99.90;;;;;;4990737;28;20314;-86
2023/01/12 06:28:37;;;;;;;4.38;1.00;;;11.20;99.90;;;;;;4996261;28;20469;-86
2023/01/12 06:31:06;;;;;;;3.42;1.08;;;11.20;99.90;;;;;;4972342;28;21727;-85
2023/01/12 06:33:33;;;;;;;3.77;1.13;;;11.20;99.90;;;;;;4989325;28;20505;-86
2023/01/12 06:35:59;;;;;;;4.57;1.15;;;11.30;99.90;;;;;;4981104;28;20736;-85
2023/01/12 06:38:27;;;;;;;5.47;1.00;;;11.30;99.90;;;;;;4990415;28;20028;-86
2023/01/12 06:40:56;;;;;;;6.15;1.00;;;11.30;99.90;;;;;;4995779;28;20854;-84
2023/01/12 06:43:22;;;;;;;6.57;1.10;;;11.30;99.90;;;;;;5008387;28;20083;-87
2023/01/12 06:45:51;;;;;;;3.93;1.00;;;11.30;99.90;;;;;;4971688;28;20025;-84
2023/01/12 06:48:21;;;;;;;5.32;0.93;;;11.30;99.90;;;;;;4983039;28;20025;-87
2023/01/12 06:50:46;;;;;;;4.93;1.17;;;11.30;99.90;;;;;;5005142;28;21041;-87
2023/01/12 06:53:12;;;;;;;3.85;0.90;;;11.30;99.90;;;;;;4984594;28;20030;-87
2023/01/12 06:55:38;;;;;;;4.83;0.90;;;11.30;99.90;;;;;;4993133;28;20231;-85
2023/01/12 06:58:04;;;;;;;5.40;1.08;;;11.40;99.90;;;;;;5006517;28;20032;-84
2023/01/12 07:00:31;;;;;;;4.00;1.10;;;11.40;99.90;;;;;;4988731;28;20033;-83
2023/01/12 07:02:56;;;;;;;3.40;1.08;;;11.40;99.90;;;;;;5000794;28;20199;-85
2023/01/12 07:05:22;;;;;;;5.78;1.20;;;11.40;99.90;;;;;;5007249;28;20087;-85
2023/01/12 07:07:57;;;;;;;5.10;0.93;;;11.40;99.90;;;;;;4954271;28;20654;-86
2023/01/12 07:10:22;;;;;;;4.32;0.80;;;11.40;99.90;;;;;;4960265;28;20026;-87
2023/01/12 07:12:49;;;;;;;4.10;0.82;;;11.40;99.90;;;;;;5006912;28;20293;-87
2023/01/12 07:15:15;;;;;;;4.53;1.00;;;11.40;99.90;;;;;;4972424;28;20021;-86
2023/01/12 07:17:41;;;;;;;3.13;0.85;;;11.40;99.90;;;;;;4959596;28;20337;-87
2023/01/12 07:20:07;;;;;;;3.78;0.80;;;11.50;99.90;;;;;;4986298;28;20518;-84
2023/01/12 07:22:33;;;;;;;2.95;0.80;;;11.40;99.90;;;;;;4982009;28;20025;-88
2023/01/12 07:24:59;;;;;;;3.00;0.83;;;11.50;99.90;;;;;;4985451;28;20049;-87
2023/01/12 07:27:24;;;;;;;5.50;1.00;;;11.50;99.90;;;;;;4978157;28;20536;-86
2023/01/12 07:29:50;;;;;;;2.30;1.07;;;11.50;99.90;;;;;;4986325;28;20236;-85
2023/01/12 07:32:16;;;;;;;4.57;0.90;;;11.50;99.90;;;;;;4968834;28;20039;-86
2023/01/12 07:34:43;;;;;;;2.43;0.70;;;11.50;99.90;;;;;;4961273;28;20037;-87
2023/01/12 07:37:09;;;;;;;2.80;0.80;;;11.50;99.90;;;;;;5007763;28;20519;-86
2023/01/12 07:39:35;;;;;;;3.70;1.10;;;11.50;99.90;;;;;;4953643;28;20026;-86
2023/01/12 07:44:45;;;;;;;2.38;0.75;;;11.60;99.90;;;;;;5001654;28;20124;-85
2023/01/12 07:47:10;;;;;;;3.47;1.00;;;11.60;99.90;;;;;;4994306;28;20040;-88
2023/01/12 07:49:36;;;;;;;2.67;0.70;;;11.60;99.90;;;;;;4975608;28;20040;-85
2023/01/12 07:52:02;;;;;;;2.67;0.77;;;11.60;99.90;;;;;;4968863;28;20076;-86
2023/01/12 07:54:28;;;;;;;2.57;0.90;;;11.60;99.90;;;;;;5001713;28;20029;-86
2023/01/12 07:56:54;;;;;;;5.43;0.90;;;11.60;99.90;;;;;;4980496;28;20030;-85
2023/01/12 07:59:20;;;;;;;2.95;0.80;;;11.60;99.90;;;;;;4994600;28;20032;-87
2023/01/12 08:01:45;;;;;;;3.73;0.70;;;11.70;99.90;;;;;;4973587;28;20025;-85
2023/01/12 08:04:12;;;;;;;3.40;0.95;;;11.60;99.90;;;;;;4975043;28;20710;-85
2023/01/12 08:06:38;;;;;;;3.95;0.80;;;11.70;99.90;;;;;;4997339;28;20052;-87
2023/01/12 08:09:03;;;;;;;3.63;0.90;;;11.70;99.90;;;;;;5011750;28;20064;-87
2023/01/12 08:11:29;;;;;;;2.55;0.80;;;11.70;99.90;;;;;;4991737;28;20090;-88
2023/01/12 08:13:56;;;;;;;3.03;0.80;;;11.70;99.90;;;;;;4993682;28;20529;-87
2023/01/12 08:16:39;;;;;;;2.42;0.80;;;11.70;99.90;;;;;;4994282;28;20661;-87
2023/01/12 08:19:19;;;;;;;2.65;0.90;;;11.80;99.90;;;;;;4974932;28;20021;-85
2023/01/12 08:21:49;;;;;;;2.92;0.70;;;11.70;99.90;;;;;;5021736;28;20051;-86
2023/01/12 08:24:20;;;;;;;2.10;0.68;;;11.70;99.90;;;;;;5030492;28;20175;-87
2023/01/12 08:26:49;;;;;;;4.27;1.10;;;11.70;99.90;;;;;;5003486;28;20055;-87
2023/01/12 08:29:31;;;;;;;2.60;0.70;;;11.80;99.90;;;;;;5028403;28;20029;-86
2023/01/12 08:32:00;;;;;;;2.70;0.95;;;11.80;99.90;;;;;;5013470;28;20056;-86
2023/01/12 08:34:27;;;;;;;4.43;1.08;;;11.80;99.90;;;;;;4985375;28;20740;-84
2023/01/12 08:36:53;;;;;;;3.40;0.90;;;11.80;99.90;;;;;;4973517;28;20625;-86
2023/01/12 08:39:19;;;;;;;2.07;0.70;;;11.80;99.90;;;;;;4997501;28;20032;-84
2023/01/12 08:41:45;;;;;;;3.45;1.08;;;11.80;99.90;;;;;;4990767;28;20317;-86
2023/01/12 08:44:10;;;;;;;3.70;0.90;;;11.80;99.90;;;;;;5012208;28;20538;-87
2023/01/12 08:46:47;;;;;;;2.80;0.90;;;11.80;99.90;;;;;;4995925;28;20025;-86
2023/01/12 08:49:13;;;;;;;2.10;0.90;;;11.80;99.90;;;;;;5011016;28;20025;-85
2023/01/12 08:51:40;;;;;;;3.50;0.90;;;11.80;99.90;;;;;;4970113;28;20225;-84
2023/01/12 08:54:08;;;;;;;4.50;1.30;;;11.80;99.90;;;;;;5004468;28;20033;-86
2023/01/12 08:56:35;;;;;;;3.42;1.00;;;11.80;99.90;;;;;;4979717;28;20021;-86
2023/01/12 08:59:02;;;;;;;2.78;0.70;;;11.80;99.90;;;;;;4997488;28;20066;-86
2023/01/12 09:01:28;;;;;;;3.88;1.00;;;11.80;99.90;;;;;;4995425;28;20487;-88
2023/01/12 09:03:56;;;;;;;4.20;0.90;;;11.80;99.90;;;;;;5013193;28;20142;-87
2023/01/12 09:06:38;;;;;;;3.85;0.70;;;11.80;99.90;;;;;;4988632;28;20506;-86
2023/01/12 09:09:08;;;;;;;3.15;0.88;;;11.80;99.90;;;;;;4990199;28;20028;-86
2023/01/12 09:11:36;;;;;;;2.13;0.80;;;11.90;99.90;;;;;;4987909;28;20412;-83
2023/01/12 09:14:02;;;;;;;2.22;0.70;;;11.80;99.90;;;;;;4995891;28;20431;-89
2023/01/12 09:16:30;;;;;;;2.97;0.90;;;11.80;99.90;;;;;;5005986;28;21822;-86
2023/01/12 09:18:56;;;;;;;1.50;0.63;;;11.90;99.90;;;;;;5004688;28;20529;-85
2023/01/12 09:21:24;;;;;;;2.92;0.77;;;11.90;99.90;;;;;;4988191;28;20078;-87
2023/01/12 09:23:51;;;;;;;1.98;0.70;;;11.90;99.90;;;;;;4983752;28;20021;-85
2023/01/12 09:26:38;;;;;;;1.97;0.70;;;11.90;99.90;;;;;;5003717;28;20552;-85
2023/01/12 09:29:04;;;;;;;2.30;0.70;;;11.90;99.90;;;;;;4977907;28;20025;-88
2023/01/12 09:31:31;;;;;;;1.95;0.70;;;11.90;99.90;;;;;;4991060;28;20021;-86
2023/01/12 09:33:58;;;;;;;2.20;0.80;;;11.90;99.90;;;;;;5021034;28;20230;-86
2023/01/12 09:36:32;;;;;;;1.40;0.80;;;11.90;99.90;;;;;;4998339;28;20027;-83
2023/01/12 09:38:58;;;;;;;1.33;0.70;;;12.00;99.90;;;;;;4981211;28;21197;-87
2023/01/12 09:47:56;;;;;;;2.40;0.80;;;12.00;99.90;;;;;;4996338;28;20037;-85
2023/01/12 09:50:58;;;;;;;2.25;1.00;;;12.00;99.90;;;;;;5010839;28;20664;-86
2023/01/12 09:53:31;;;;;;;2.23;0.80;;;12.00;99.90;;;;;;5010243;28;20056;-85
2023/01/12 09:56:27;;;;;;;2.13;0.80;;;12.00;99.90;;;;;;5004778;28;20100;-85
2023/01/12 09:59:14;;;;;;;2.05;0.70;;;12.00;99.90;;;;;;5023120;28;20346;-84
2023/01/12 10:01:39;;;;;;;1.40;0.77;;;12.00;99.90;;;;;;4997996;28;20477;-87
2023/01/12 10:04:06;;;;;;;1.83;0.60;;;12.00;99.90;;;;;;5035427;28;20017;-86
2023/01/12 10:06:32;;;;;;;2.05;0.80;;;12.00;99.90;;;;;;4973227;28;20144;-85
2023/01/12 10:09:02;;;;;;;1.88;0.70;;;12.00;99.90;;;;;;4982024;28;20033;-87
2023/01/12 10:11:36;;;;;;;2.97;0.70;;;12.10;99.90;;;;;;5015239;28;20108;-85
2023/01/12 10:14:30;;;;;;;1.00;0.50;;;12.10;99.90;;;;;;4987407;28;20130;-85
2023/01/12 10:17:17;;;;;;;1.98;0.70;;;12.10;99.90;;;;;;4991279;28;20045;-86
2023/01/12 10:19:50;;;;;;;2.05;0.75;;;12.10;99.90;;;;;;5013668;28;20033;-85
2023/01/12 10:22:37;;;;;;;1.70;0.60;;;12.10;99.90;;;;;;4999523;28;20017;-88
2023/01/12 10:25:23;;;;;;;2.47;0.70;;;12.10;99.90;;;;;;4972930;28;20582;-87
2023/01/12 10:27:51;;;;;;;1.33;0.70;;;12.10;99.90;;;;;;4991071;28;20075;-85
2023/01/12 10:30:19;;;;;;;1.90;0.60;;;12.10;99.90;;;;;;4977806;28;20381;-84
2023/01/12 10:32:46;;;;;;;2.08;0.80;;;12.20;99.90;;;;;;4997041;28;20092;-86
2023/01/12 10:35:15;;;;;;;3.40;0.80;;;12.20;99.90;;;;;;4982732;28;20394;-86
2023/01/12 10:37:53;;;;;;;1.75;0.70;;;12.20;99.90;;;;;;4984592;28;20431;-87
2023/01/12 10:40:33;;;;;;;3.70;0.70;;;12.20;99.90;;;;;;4978245;28;20528;-87
2023/01/12 10:43:20;;;;;;;2.60;0.80;;;12.20;99.90;;;;;;4986301;28;20122;-85
2023/01/12 10:46:04;;;;;;;2.30;0.70;;;12.30;99.90;;;;;;4991329;28;20021;-85
2023/01/12 10:48:31;;;;;;;2.05;0.60;;;12.20;99.90;;;;;;5015329;28;20061;-88
2023/01/12 10:51:01;;;;;;;1.52;0.80;;;12.30;99.90;;;;;;5008134;28;20416;-86
2023/01/12 10:53:54;;;;;;;1.50;0.70;;;12.30;99.90;;;;;;5013297;28;20324;-85
2023/01/12 10:56:34;;;;;;;2.28;0.70;;;12.30;99.90;;;;;;4994842;28;20061;-87
2023/01/12 10:59:12;;;;;;;1.38;0.68;;;12.30;99.90;;;;;;4987792;28;20390;-86
2023/01/12 11:02:04;;;;;;;3.15;0.90;;;12.30;99.90;;;;;;4996104;28;20025;-87
2023/01/12 11:04:34;;;;;;;2.78;1.35;;;12.40;99.90;;;;;;5005869;28;20032;-85
2023/01/12 11:07:01;;;;;;;1.83;0.70;;;12.40;99.90;;;;;;4991494;28;20196;-86
2023/01/12 11:09:29;;;;;;;2.55;0.90;;;12.40;99.90;;;;;;4977207;28;20048;-85
2023/01/12 11:12:00;;;;;;;2.55;0.70;;;12.30;99.90;;;;;;4969206;28;20022;-86
2023/01/12 11:14:32;;;;;;;1.40;0.60;;;12.30;99.90;;;;;;4996275;28;20040;-84
2023/01/12 11:17:14;;;;;;;0.90;0.60;;;12.40;99.90;;;;;;5005385;28;20690;-85
2023/01/12 11:19:42;;;;;;;2.57;0.77;;;12.30;99.90;;;;;;4979063;28;20713;-84
2023/01/12 11:22:24;;;;;;;2.47;0.70;;;12.40;99.90;;;;;;4974767;28;20026;-85
2023/01/12 11:25:01;;;;;;;1.83;0.70;;;12.40;99.90;;;;;;4970943;28;20501;-87
2023/01/12 11:27:44;;;;;;;2.47;0.85;;;12.40;99.90;;;;;;5016362;28;20061;-88
2023/01/12 11:30:17;;;;;;;1.60;0.60;;;12.40;99.90;;;;;;5004903;28;20052;-84
2023/01/12 11:33:03;;;;;;;1.30;0.70;;;12.40;99.90;;;;;;5009474;28;20040;-85
2023/01/12 11:35:50;;;;;;;2.08;0.80;;;12.30;99.90;;;;;;4996994;28;20052;-85
2023/01/12 11:38:23;;;;;;;2.03;0.75;;;12.40;99.90;;;;;;4995554;28;20501;-85
2023/01/12 11:40:49;;;;;;;1.98;0.70;;;12.30;99.90;;;;;;4973029;28;20149;-86
2023/01/12 11:46:42;;;;;;;0.90;0.50;;;12.30;99.90;;;;;;4992833;28;20021;-84
2023/01/12 11:49:21;;;;;;;3.08;0.70;;;12.30;99.90;;;;;;4965703;28;20117;-87
2023/01/12 11:51:52;;;;;;;1.50;0.80;;;12.40;99.90;;;;;;5009981;28;20037;-84
2023/01/12 11:54:18;;;;;;;1.45;0.73;;;12.30;99.90;;;;;;4996961;28;20167;-84
2023/01/12 11:57:04;;;;;;;1.45;0.60;;;12.30;99.90;;;;;;4979944;28;20025;-88
2023/01/12 11:59:40;;;;;;;1.17;0.70;;;12.30;99.90;;;;;;4974008;28;20026;-84
2023/01/12 12:02:19;;;;;;;1.00;0.57;;;12.40;99.90;;;;;;5009235;28;20033;-85
2023/01/12 12:05:05;;;;;;;2.13;0.85;;;12.40;99.90;;;;;;4984402;28;20301;-85
2023/01/12 12:07:57;;;;;;;1.50;0.60;;;12.40;99.90;;;;;;4994023;28;20156;-85
2023/01/12 12:10:31;;;;;;;1.00;0.80;;;12.40;99.90;;;;;;5011144;28;20030;-85
2023/01/12 12:13:14;;;;;;;1.80;0.90;;;12.40;99.90;;;;;;4972357;28;20029;-85
2023/01/12 12:16:08;;;;;;;2.10;1.00;;;12.40;99.90;;;;;;4966571;28;20032;-85
2023/01/12 12:18:50;;;;;;;1.60;0.88;;;12.40;99.90;;;;;;4994636;28;20045;-86
2023/01/12 12:21:37;;;;;;;1.90;0.80;;;12.40;99.90;;;;;;5013078;28;20029;-85
2023/01/12 12:24:24;;;;;;;1.55;0.70;;;12.40;99.90;;;;;;4978173;28;20237;-84
2023/01/12 12:27:01;;;;;;;0.97;0.60;;;12.40;99.90;;;;;;4988908;28;20030;-85
2023/01/12 12:29:56;;;;;;;1.75;0.70;;;12.40;99.90;;;;;;4971350;28;20031;-84
2023/01/12 12:32:40;;;;;;;2.58;0.63;;;12.40;99.90;;;;;;4975643;28;20038;-84
2023/01/12 12:35:17;;;;;;;1.65;0.60;;;12.40;99.90;;;;;;4976375;28;20080;-85
2023/01/12 12:38:08;;;;;;;1.70;0.80;;;12.40;99.90;;;;;;5009582;28;20037;-85
2023/01/12 12:46:36;;;;;;;2.03;0.82;;;12.50;99.90;;;;;;4976973;28;20481;-85
2023/01/12 12:49:10;;;;;;;2.97;0.93;;;12.40;99.90;;;;;;5010368;28;20221;-84
2023/01/12 12:51:37;;;;;;;2.63;1.00;;;12.50;99.90;;;;;;5000815;28;20022;-85
2023/01/12 12:54:09;;;;;;;1.83;0.80;;;12.50;99.90;;;;;;4994270;28;20770;-85
2023/01/12 12:56:35;;;;;;;2.97;0.77;;;12.50;99.90;;;;;;4996257;28;20034;-86
2023/01/12 12:59:01;;;;;;;2.85;0.98;;;12.50;99.90;;;;;;4996611;28;20125;-86
2023/01/12 13:01:27;;;;;;;1.42;0.70;;;12.50;99.90;;;;;;4970173;28;20021;-85
2023/01/12 13:03:58;;;;;;;2.17;0.70;;;12.50;99.90;;;;;;5010543;28;20271;-85
2023/01/12 13:06:28;;;;;;;1.65;0.70;;;12.50;99.90;;;;;;4968925;28;20034;-86
2023/01/12 13:09:00;;;;;;;1.30;0.65;;;12.50;99.90;;;;;;4988015;28;20263;-86
2023/01/12 13:11:47;;;;;;;1.50;0.80;;;12.50;99.90;;;;;;4995030;28;20743;-83
2023/01/12 13:14:23;;;;;;;1.30;0.80;;;12.60;99.90;;;;;;4994006;28;20606;-84
2023/01/12 13:16:51;;;;;;;1.48;0.73;;;12.50;99.90;;;;;;4946331;28;20030;-85
2023/01/12 13:19:40;;;;;;;1.73;0.73;;;12.50;99.90;;;;;;4979945;28;20021;-85
2023/01/12 13:22:31;;;;;;;2.00;0.85;;;12.60;99.90;;;;;;4972824;28;20071;-85
2023/01/12 13:25:23;;;;;;;1.40;0.82;;;12.60;99.90;;;;;;5011033;28;20232;-84
2023/01/12 13:27:59;;;;;;;1.07;0.80;;;12.60;99.90;;;;;;4979503;28;20228;-84
2023/01/12 13:30:25;;;;;;;1.83;0.85;;;12.60;99.90;;;;;;5014673;28;20026;-87
2023/01/12 13:33:00;;;;;;;1.70;0.82;;;12.60;99.90;;;;;;4965046;28;20334;-86
2023/01/12 13:35:35;;;;;;;3.13;1.10;;;12.60;99.90;;;;;;4993799;28;20781;-86
2023/01/12 13:38:10;;;;;;;2.20;0.98;;;12.60;99.90;;;;;;4987947;28;20099;-85
2023/01/12 13:40:37;;;;;;;3.20;1.10;;;12.60;99.90;;;;;;4994088;28;20028;-85
2023/01/12 13:43:14;;;;;;;2.65;1.25;;;12.60;99.90;;;;;;5000335;28;20221;-85
2023/01/12 13:46:02;;;;;;;3.78;1.27;;;12.60;99.90;;;;;;5011542;28;20025;-85
2023/01/12 13:48:29;;;;;;;4.63;1.70;;;12.60;99.90;;;;;;4963711;28;20512;-83